Aviation Digital Data Service (ADDS)

Output produced by METARs form (0825 UTC 04 July 2015)
found at http://aviationweather.gov/adds/metars/
 
KACY 040545Z 0406/0506 13005KT P6SM BKN100 
     FM041000 09005KT 6SM -SHRA BR SCT025 OVC070 
     FM041300 07008KT 5SM -SHRA BR OVC030 
     TEMPO 0416/0420 2SM SHRA OVC020 
     FM042200 04008KT P6SM OVC025